Time;durP1;ratioP1;P1;durP2;ratioP2;P2;SDS_P1;SDS_P2;PMS_P1;PMS_P2;Temp;Humidity;BMP_temperature;BMP_pressure;BME280_temperature;BME280_humidity;BME280_pressure;Samples;Min_cycle;Max_cycle;Signal;HPM_P1;HPM_P2
2022/03/11 00:02:21;;;;;;;15.23;8.55;;;5.90;99.90;;;;;;5052229;28;20048;-49
2022/03/11 00:04:47;;;;;;;15.52;8.25;;;5.80;99.90;;;;;;5056144;28;20120;-52
2022/03/11 00:07:30;;;;;;;13.32;7.63;;;5.70;99.90;;;;;;5052331;28;20036;-53
2022/03/11 00:09:57;;;;;;;12.63;8.25;;;5.70;99.90;;;;;;5052458;28;20041;-53
2022/03/11 00:12:24;;;;;;;16.90;7.60;;;5.70;99.90;;;;;;5052192;28;20051;-52
2022/03/11 00:14:51;;;;;;;13.43;7.40;;;5.70;99.90;;;;;;5052165;28;20049;-54
2022/03/11 00:17:16;;;;;;;17.30;7.78;;;5.70;99.90;;;;;;5052089;28;20751;-54
2022/03/11 00:19:42;;;;;;;14.27;8.20;;;5.70;99.90;;;;;;5052274;28;20044;-52
2022/03/11 00:22:08;;;;;;;15.18;9.10;;;5.60;99.90;;;;;;5052151;28;20515;-53
2022/03/11 00:24:34;;;;;;;14.00;7.85;;;5.60;99.90;;;;;;5050612;28;20130;-52
2022/03/11 00:26:59;;;;;;;13.95;7.53;;;5.60;99.90;;;;;;5052318;28;20076;-50
2022/03/11 00:29:25;;;;;;;13.60;7.40;;;5.60;99.90;;;;;;5052216;28;20072;-51
2022/03/11 00:31:51;;;;;;;14.48;8.32;;;5.50;99.90;;;;;;5052115;28;20094;-48
2022/03/11 00:34:17;;;;;;;14.68;7.95;;;5.50;99.90;;;;;;5052242;28;20041;-53
2022/03/11 00:36:44;;;;;;;13.45;7.82;;;5.50;99.90;;;;;;5053228;28;20389;-53
2022/03/11 00:39:10;;;;;;;14.90;8.15;;;5.40;99.90;;;;;;5056310;28;20053;-54
2022/03/11 00:41:36;;;;;;;13.45;7.53;;;5.40;99.90;;;;;;5056158;28;20094;-50
2022/03/11 00:44:02;;;;;;;14.13;7.63;;;5.40;99.90;;;;;;5055941;28;20044;-52
2022/03/11 00:46:28;;;;;;;14.35;8.10;;;5.40;99.90;;;;;;5056292;28;20045;-52
2022/03/11 00:48:53;;;;;;;14.63;7.97;;;5.30;99.90;;;;;;5056142;28;20660;-49
2022/03/11 00:51:19;;;;;;;13.43;7.55;;;5.30;99.90;;;;;;5055770;28;20134;-51
2022/03/11 00:53:45;;;;;;;13.05;7.43;;;5.30;99.90;;;;;;5055976;28;20048;-49
2022/03/11 00:56:10;;;;;;;12.93;7.47;;;5.20;99.90;;;;;;5054314;28;20123;-49
2022/03/11 00:58:36;;;;;;;12.70;7.40;;;5.20;99.90;;;;;;5055933;28;20040;-49
2022/03/11 01:01:03;;;;;;;14.38;6.95;;;5.10;99.90;;;;;;5055756;28;20047;-48
2022/03/11 01:03:28;;;;;;;13.30;7.70;;;5.10;99.90;;;;;;5056624;28;20052;-48
2022/03/11 01:05:54;;;;;;;13.52;7.38;;;5.10;99.90;;;;;;5058506;28;20040;-50
2022/03/11 01:08:20;;;;;;;16.50;8.38;;;5.10;99.90;;;;;;5055597;28;20041;-53
2022/03/11 01:10:45;;;;;;;13.50;7.05;;;5.10;99.90;;;;;;5055397;28;20045;-53
2022/03/11 01:13:11;;;;;;;12.95;7.03;;;5.00;99.90;;;;;;5055632;28;20171;-52
2022/03/11 01:15:37;;;;;;;12.75;7.50;;;5.00;99.90;;;;;;5055736;28;20041;-49
2022/03/11 01:18:03;;;;;;;15.07;7.07;;;5.00;99.90;;;;;;5055433;28;20044;-49
2022/03/11 01:20:28;;;;;;;14.57;7.60;;;4.90;99.90;;;;;;5054963;28;20040;-50
2022/03/11 01:22:54;;;;;;;15.50;8.80;;;4.90;99.90;;;;;;5055025;28;20149;-50
2022/03/11 01:25:20;;;;;;;12.90;7.00;;;4.90;99.90;;;;;;5053853;28;20124;-49
2022/03/11 01:27:45;;;;;;;15.15;7.45;;;4.90;99.90;;;;;;5055426;28;20061;-51
2022/03/11 01:30:16;;;;;;;14.80;7.35;;;4.90;99.90;;;;;;5055530;28;20071;-51
2022/03/11 01:32:42;;;;;;;14.10;7.68;;;4.80;99.90;;;;;;5055509;28;20144;-49
2022/03/11 01:35:08;;;;;;;12.52;7.78;;;4.90;99.90;;;;;;5054985;28;20094;-54
2022/03/11 01:37:34;;;;;;;14.38;7.78;;;4.90;99.90;;;;;;5055166;28;20029;-52
2022/03/11 01:40:00;;;;;;;15.88;8.02;;;4.80;99.90;;;;;;5055107;28;20047;-51
2022/03/11 01:42:25;;;;;;;12.57;7.47;;;4.90;99.90;;;;;;5054755;28;20477;-52
2022/03/11 01:44:52;;;;;;;14.93;8.48;;;4.80;99.90;;;;;;5055052;28;20033;-53
2022/03/11 01:47:19;;;;;;;15.63;7.68;;;4.80;99.90;;;;;;5053553;28;20535;-52
2022/03/11 01:49:45;;;;;;;16.83;8.15;;;4.80;99.90;;;;;;5054023;28;20037;-53
2022/03/11 01:52:14;;;;;;;19.92;9.00;;;4.80;99.90;;;;;;5054618;28;20045;-50
2022/03/11 01:54:42;;;;;;;18.42;8.95;;;4.80;99.90;;;;;;5053125;28;20044;-51
2022/03/11 01:57:08;;;;;;;16.80;9.25;;;4.80;99.90;;;;;;5054593;28;20041;-50
2022/03/11 01:59:34;;;;;;;15.52;8.77;;;4.70;99.90;;;;;;5054525;28;20500;-49
2022/03/11 02:02:00;;;;;;;22.00;10.07;;;4.80;99.90;;;;;;5054581;28;20048;-53
2022/03/11 02:04:26;;;;;;;16.58;9.45;;;4.70;99.90;;;;;;5058224;28;20341;-53
2022/03/11 02:06:52;;;;;;;17.42;9.73;;;4.70;99.90;;;;;;5054623;28;20427;-54
2022/03/11 02:09:18;;;;;;;18.25;9.63;;;4.70;99.90;;;;;;5054308;28;20068;-52
2022/03/11 02:11:46;;;;;;;18.38;10.27;;;4.60;99.90;;;;;;5054148;28;20044;-52
2022/03/11 02:14:12;;;;;;;17.13;10.15;;;4.60;99.90;;;;;;5054470;28;20048;-52
2022/03/11 02:16:40;;;;;;;19.33;10.70;;;4.60;99.90;;;;;;5052931;28;20389;-51
2022/03/11 02:19:06;;;;;;;15.93;8.95;;;4.60;99.90;;;;;;5054083;28;20041;-50
2022/03/11 02:21:43;;;;;;;20.50;9.95;;;4.60;99.90;;;;;;5054097;28;20053;-51
2022/03/11 02:24:12;;;;;;;16.45;9.82;;;4.50;99.90;;;;;;5053934;28;20401;-48
2022/03/11 02:26:38;;;;;;;19.13;10.82;;;4.50;99.90;;;;;;5053952;28;20072;-49
2022/03/11 02:29:04;;;;;;;20.05;10.90;;;4.50;99.90;;;;;;5054237;28;20032;-52
2022/03/11 02:31:31;;;;;;;19.50;10.55;;;4.40;99.90;;;;;;5054025;28;20080;-48
2022/03/11 02:33:59;;;;;;;21.58;11.50;;;4.40;99.90;;;;;;5054257;28;20045;-49
2022/03/11 02:36:25;;;;;;;20.27;11.00;;;4.40;99.90;;;;;;5053817;28;20052;-53
2022/03/11 02:38:51;;;;;;;19.70;10.95;;;4.50;99.90;;;;;;5036128;28;20750;-48
2022/03/11 02:41:17;;;;;;;19.45;11.35;;;4.40;99.90;;;;;;5053590;28;20037;-53
2022/03/11 02:43:43;;;;;;;19.42;12.80;;;4.40;99.90;;;;;;5053619;28;20127;-51
2022/03/11 02:46:10;;;;;;;22.58;12.40;;;4.40;99.90;;;;;;5053953;28;20028;-51
2022/03/11 02:48:36;;;;;;;19.80;11.82;;;4.30;99.90;;;;;;5053549;28;20112;-50
2022/03/11 02:51:02;;;;;;;22.77;11.30;;;4.30;99.90;;;;;;5052418;28;20136;-49
2022/03/11 02:53:27;;;;;;;21.27;11.77;;;4.30;99.90;;;;;;5053544;28;20072;-52
2022/03/11 02:55:53;;;;;;;19.88;12.40;;;4.30;99.90;;;;;;5053363;28;20489;-50
2022/03/11 02:58:19;;;;;;;21.88;11.65;;;4.30;99.90;;;;;;5053757;28;20040;-52
2022/03/11 03:00:45;;;;;;;21.55;13.32;;;4.30;99.90;;;;;;5052418;28;20143;-52
2022/03/11 03:03:11;;;;;;;22.25;12.23;;;4.20;99.90;;;;;;5053414;28;20040;-53
2022/03/11 03:05:37;;;;;;;21.38;12.30;;;4.20;99.90;;;;;;5057179;28;20040;-51
2022/03/11 03:08:03;;;;;;;21.42;12.65;;;4.20;99.90;;;;;;5051954;28;20178;-53
2022/03/11 03:10:29;;;;;;;21.15;13.50;;;4.10;99.90;;;;;;5053291;28;20040;-52
2022/03/11 03:12:54;;;;;;;21.67;13.65;;;4.10;99.90;;;;;;5051680;28;20048;-52
2022/03/11 03:15:20;;;;;;;23.50;12.85;;;4.10;99.90;;;;;;5053035;28;20041;-53
2022/03/11 03:17:46;;;;;;;20.27;13.05;;;4.10;99.90;;;;;;5053122;28;20131;-52
2022/03/11 03:20:12;;;;;;;23.55;14.70;;;4.10;99.90;;;;;;5052814;28;20485;-49
2022/03/11 03:22:38;;;;;;;24.20;15.00;;;4.00;99.90;;;;;;5053068;28;20037;-50
2022/03/11 03:25:04;;;;;;;25.20;14.73;;;4.00;99.90;;;;;;5053090;28;20146;-49
2022/03/11 03:27:30;;;;;;;24.05;14.20;;;4.00;99.90;;;;;;5052835;28;20037;-49
2022/03/11 03:29:56;;;;;;;25.95;14.75;;;4.00;99.90;;;;;;5052778;28;20040;-52
2022/03/11 03:32:22;;;;;;;24.08;14.85;;;4.00;99.90;;;;;;5052666;28;20049;-49
2022/03/11 03:34:48;;;;;;;24.25;14.05;;;3.90;99.90;;;;;;5052617;28;20041;-52
2022/03/11 03:37:14;;;;;;;23.88;13.85;;;3.90;99.90;;;;;;5052900;28;20037;-51
2022/03/11 03:39:41;;;;;;;27.33;15.80;;;3.90;99.90;;;;;;5052731;28;20404;-53
2022/03/11 03:42:08;;;;;;;26.75;15.43;;;3.90;99.90;;;;;;5052935;28;20037;-49
2022/03/11 03:44:34;;;;;;;23.52;14.98;;;3.90;99.90;;;;;;5052601;28;20508;-49
2022/03/11 03:47:00;;;;;;;25.88;15.13;;;3.90;99.90;;;;;;5052884;28;20049;-49
2022/03/11 03:49:25;;;;;;;24.13;14.38;;;3.80;99.90;;;;;;5034577;28;20045;-50
2022/03/11 03:51:52;;;;;;;26.20;15.43;;;3.80;99.90;;;;;;5052719;28;20397;-48
2022/03/11 03:54:18;;;;;;;27.27;15.55;;;3.80;99.90;;;;;;5052331;28;20044;-50
2022/03/11 03:56:45;;;;;;;27.77;16.02;;;3.80;99.90;;;;;;5051050;28;20094;-48
2022/03/11 03:59:12;;;;;;;24.70;16.17;;;3.80;99.90;;;;;;5052559;28;20049;-49
2022/03/11 04:01:40;;;;;;;27.75;16.27;;;3.80;99.90;;;;;;5052449;28;20063;-49
2022/03/11 04:04:06;;;;;;;27.30;15.32;;;3.70;99.90;;;;;;5055812;28;20036;-49
2022/03/11 04:06:33;;;;;;;25.75;15.00;;;3.70;99.90;;;;;;5051279;28;20488;-48
2022/03/11 04:09:00;;;;;;;27.27;16.35;;;3.70;99.90;;;;;;5052310;28;20073;-48
2022/03/11 04:11:27;;;;;;;27.48;16.38;;;3.60;99.90;;;;;;5050860;28;20049;-49
2022/03/11 04:13:54;;;;;;;25.58;16.52;;;3.60;99.90;;;;;;5052302;28;20065;-48
2022/03/11 04:16:20;;;;;;;28.17;16.23;;;3.60;99.90;;;;;;5050982;28;20366;-53
2022/03/11 04:18:47;;;;;;;28.90;16.88;;;3.50;99.90;;;;;;5052020;28;20045;-52
2022/03/11 04:21:13;;;;;;;27.77;16.67;;;3.50;99.90;;;;;;5052292;28;20045;-53
2022/03/11 04:23:41;;;;;;;27.52;17.42;;;3.50;99.90;;;;;;5051926;28;20505;-53
2022/03/11 04:26:07;;;;;;;28.00;15.77;;;3.50;99.90;;;;;;5051872;28;20048;-48
2022/03/11 04:28:33;;;;;;;27.27;16.85;;;3.50;99.90;;;;;;5051922;28;20046;-54
2022/03/11 04:30:59;;;;;;;27.45;16.73;;;3.50;99.90;;;;;;5052115;28;20048;-53
2022/03/11 04:33:26;;;;;;;29.83;16.85;;;3.50;99.90;;;;;;5050988;28;20697;-48
2022/03/11 04:35:52;;;;;;;28.38;16.55;;;3.50;99.90;;;;;;5052152;28;20053;-50
2022/03/11 04:38:18;;;;;;;31.95;15.70;;;3.50;99.90;;;;;;5052222;28;20115;-50
2022/03/11 04:40:44;;;;;;;28.85;17.13;;;3.50;99.90;;;;;;5052140;28;20036;-50
2022/03/11 04:43:09;;;;;;;27.88;17.25;;;3.40;99.90;;;;;;5052275;28;20465;-49
2022/03/11 04:45:35;;;;;;;27.48;16.20;;;3.40;99.90;;;;;;5052369;28;20033;-49
2022/03/11 04:48:01;;;;;;;29.20;15.88;;;3.40;99.90;;;;;;5051738;28;20625;-50
2022/03/11 04:50:26;;;;;;;30.52;16.42;;;3.40;99.90;;;;;;5051658;28;20041;-50
2022/03/11 04:52:52;;;;;;;26.30;16.13;;;3.40;99.90;;;;;;5052020;28;20543;-49
2022/03/11 04:55:18;;;;;;;28.70;16.42;;;3.40;99.90;;;;;;5051498;28;20063;-49
2022/03/11 04:57:44;;;;;;;27.55;16.35;;;3.30;99.90;;;;;;5051946;28;20041;-51
2022/03/11 05:00:11;;;;;;;26.17;15.88;;;3.30;99.90;;;;;;5051889;28;20124;-53
2022/03/11 05:02:40;;;;;;;24.02;15.77;;;3.30;99.90;;;;;;5051537;28;20037;-53
2022/03/11 05:05:07;;;;;;;28.00;16.55;;;3.30;99.90;;;;;;5055286;28;20045;-53
2022/03/11 05:07:33;;;;;;;29.13;17.23;;;3.20;99.90;;;;;;5051714;28;20401;-53
2022/03/11 05:09:59;;;;;;;27.63;17.33;;;3.20;99.90;;;;;;5051909;28;20084;-52
2022/03/11 05:12:25;;;;;;;30.02;16.98;;;3.20;99.90;;;;;;5051443;28;20041;-50
2022/03/11 05:14:51;;;;;;;27.23;17.20;;;3.20;99.90;;;;;;5051316;28;20049;-50
2022/03/11 05:17:17;;;;;;;28.23;17.83;;;3.10;99.90;;;;;;5051463;28;20045;-49
2022/03/11 05:19:43;;;;;;;29.83;16.85;;;3.10;99.90;;;;;;5051576;28;20044;-49
2022/03/11 05:22:09;;;;;;;26.88;16.60;;;3.20;99.90;;;;;;5051667;28;20440;-48
2022/03/11 05:24:35;;;;;;;28.60;17.00;;;3.10;99.90;;;;;;5053540;28;20064;-49
2022/03/11 05:27:02;;;;;;;26.23;16.27;;;3.10;99.90;;;;;;5055185;28;20052;-49
2022/03/11 05:29:29;;;;;;;25.40;15.38;;;3.10;99.90;;;;;;5055317;28;20431;-49
2022/03/11 05:31:54;;;;;;;27.45;16.65;;;3.00;99.90;;;;;;5055157;28;20112;-48
2022/03/11 05:34:20;;;;;;;28.45;17.48;;;3.00;99.90;;;;;;5055448;28;20454;-50
2022/03/11 05:36:46;;;;;;;27.98;16.73;;;3.00;99.90;;;;;;5053737;28;20062;-53
2022/03/11 05:39:12;;;;;;;26.63;17.17;;;3.00;99.90;;;;;;5054955;28;20080;-52
2022/03/11 05:41:38;;;;;;;28.23;16.95;;;3.00;99.90;;;;;;5054749;28;20044;-52
2022/03/11 05:44:03;;;;;;;31.77;18.42;;;3.00;99.90;;;;;;5054916;28;20041;-50
2022/03/11 05:46:29;;;;;;;28.75;17.38;;;2.90;99.90;;;;;;5055045;28;20112;-53
2022/03/11 05:48:55;;;;;;;27.60;16.70;;;3.00;99.90;;;;;;5054678;28;20443;-49
2022/03/11 05:51:21;;;;;;;32.13;18.08;;;2.90;99.90;;;;;;5054569;28;20045;-48
2022/03/11 05:53:46;;;;;;;28.38;18.45;;;3.00;99.90;;;;;;5054938;28;20045;-48
2022/03/11 05:56:12;;;;;;;27.25;16.65;;;2.90;99.90;;;;;;5054829;28;20124;-53
2022/03/11 05:58:38;;;;;;;32.45;16.17;;;2.90;99.90;;;;;;5054862;28;20098;-53
2022/03/11 06:01:03;;;;;;;27.98;16.33;;;2.90;99.90;;;;;;5053151;28;20409;-49
2022/03/11 06:03:29;;;;;;;30.40;16.35;;;2.90;99.90;;;;;;5054339;28;20041;-49
2022/03/11 06:05:56;;;;;;;27.08;15.98;;;2.90;99.90;;;;;;5056911;28;20041;-50
2022/03/11 06:08:22;;;;;;;27.83;16.17;;;2.90;99.90;;;;;;5054488;28;20167;-52
2022/03/11 06:10:47;;;;;;;25.98;16.15;;;2.90;99.90;;;;;;5054341;28;20132;-52
2022/03/11 06:13:14;;;;;;;29.38;18.10;;;2.90;99.90;;;;;;5054210;28;20045;-49
2022/03/11 06:15:41;;;;;;;28.33;16.63;;;2.90;99.90;;;;;;5054499;28;20119;-52
2022/03/11 06:18:07;;;;;;;26.58;16.65;;;2.90;99.90;;;;;;5054241;28;20059;-52
2022/03/11 06:20:33;;;;;;;29.35;17.00;;;2.90;99.90;;;;;;5054010;28;20088;-49
2022/03/11 06:22:59;;;;;;;29.52;16.20;;;3.00;99.90;;;;;;5054125;28;20142;-50
2022/03/11 06:25:25;;;;;;;29.42;17.92;;;3.00;99.90;;;;;;5053383;28;20434;-49
2022/03/11 06:27:51;;;;;;;28.33;17.70;;;3.00;99.90;;;;;;5053489;28;20044;-52
2022/03/11 06:30:16;;;;;;;28.35;16.88;;;2.90;99.90;;;;;;5053274;28;20422;-49
2022/03/11 06:32:48;;;;;;;30.67;16.33;;;3.00;99.90;;;;;;5053323;28;20041;-51
2022/03/11 06:35:15;;;;;;;32.67;18.50;;;3.00;99.90;;;;;;5053184;28;20041;-49
2022/03/11 06:37:43;;;;;;;30.58;15.88;;;2.90;99.90;;;;;;5051853;28;20123;-49
2022/03/11 06:40:10;;;;;;;29.13;18.08;;;3.00;99.90;;;;;;5052886;28;20040;-49
2022/03/11 06:42:41;;;;;;;29.08;17.15;;;3.00;99.90;;;;;;5058116;28;20489;-50
2022/03/11 06:45:09;;;;;;;29.63;16.42;;;3.00;99.90;;;;;;5062709;28;20064;-52
2022/03/11 06:47:35;;;;;;;31.23;17.88;;;3.10;99.90;;;;;;5060038;28;20120;-50
2022/03/11 06:50:01;;;;;;;28.42;15.93;;;3.10;99.90;;;;;;5062868;28;20038;-52
2022/03/11 06:52:27;;;;;;;28.95;16.83;;;3.10;99.90;;;;;;5061436;28;20056;-53
2022/03/11 06:54:53;;;;;;;27.95;18.27;;;3.20;99.90;;;;;;5061177;28;20503;-53
2022/03/11 06:57:19;;;;;;;28.70;16.80;;;3.20;99.90;;;;;;5063328;28;20105;-53
2022/03/11 06:59:45;;;;;;;27.13;15.85;;;3.20;99.90;;;;;;5062330;28;20436;-53
2022/03/11 07:02:11;;;;;;;28.45;16.65;;;3.20;99.90;;;;;;5061521;28;20090;-48
2022/03/11 07:04:36;;;;;;;26.50;16.30;;;3.20;99.90;;;;;;5059959;28;20045;-49
2022/03/11 07:07:03;;;;;;;30.60;17.52;;;3.30;99.90;;;;;;5052539;28;20480;-48
2022/03/11 07:09:29;;;;;;;29.33;17.00;;;3.40;99.90;;;;;;5052582;28;20143;-53
2022/03/11 07:12:00;;;;;;;28.38;16.05;;;3.30;99.90;;;;;;5052548;28;20140;-51
2022/03/11 07:14:27;;;;;;;26.50;16.83;;;3.40;99.90;;;;;;5052468;28;20036;-50
2022/03/11 07:16:53;;;;;;;27.20;15.20;;;3.40;99.90;;;;;;5051082;28;20048;-49
2022/03/11 07:19:19;;;;;;;25.92;15.13;;;3.50;99.90;;;;;;5052447;28;20048;-49
2022/03/11 07:21:45;;;;;;;25.25;15.20;;;3.50;99.90;;;;;;5052391;28;20045;-53
2022/03/11 07:24:11;;;;;;;28.27;16.38;;;3.60;99.90;;;;;;5050838;28;20586;-50
2022/03/11 07:26:37;;;;;;;29.40;16.02;;;3.60;99.90;;;;;;5052162;28;20438;-48
2022/03/11 07:29:02;;;;;;;26.52;15.23;;;3.70;99.90;;;;;;5050707;28;20075;-51
2022/03/11 07:31:28;;;;;;;27.58;16.30;;;3.70;99.90;;;;;;5052044;28;20080;-54
2022/03/11 07:33:58;;;;;;;27.40;16.08;;;3.70;99.90;;;;;;5052257;28;20037;-49
2022/03/11 07:36:24;;;;;;;28.63;16.15;;;3.80;99.90;;;;;;5051918;28;20118;-50
2022/03/11 07:38:49;;;;;;;25.13;16.00;;;3.90;99.90;;;;;;5052014;28;20088;-49
2022/03/11 07:41:16;;;;;;;26.20;16.10;;;3.90;99.90;;;;;;5051709;28;20548;-49
2022/03/11 07:43:44;;;;;;;28.00;16.55;;;4.00;99.90;;;;;;5051646;28;20515;-52
2022/03/11 07:46:14;;;;;;;29.25;16.55;;;4.00;99.90;;;;;;5051106;28;20101;-51
2022/03/11 07:48:43;;;;;;;28.85;16.48;;;4.00;99.90;;;;;;5051308;28;20044;-51
2022/03/11 07:51:09;;;;;;;26.50;15.82;;;4.10;99.90;;;;;;5051828;28;20346;-54
2022/03/11 07:53:35;;;;;;;26.55;16.30;;;4.10;99.90;;;;;;5051919;28;20052;-49
2022/03/11 07:56:04;;;;;;;26.20;14.95;;;4.20;99.90;;;;;;5051534;28;20037;-50
2022/03/11 07:58:30;;;;;;;28.13;16.88;;;4.30;99.90;;;;;;5051116;28;20044;-50
2022/03/11 08:00:56;;;;;;;31.05;16.58;;;4.30;99.90;;;;;;5051422;28;20041;-53
2022/03/11 08:03:22;;;;;;;25.95;15.82;;;4.40;99.90;;;;;;5051624;28;20047;-50
2022/03/11 08:05:48;;;;;;;26.73;16.17;;;4.40;99.90;;;;;;5071901;28;20111;-53
2022/03/11 08:08:15;;;;;;;24.42;15.68;;;4.40;99.90;;;;;;5071240;28;20135;-52
2022/03/11 08:10:41;;;;;;;28.33;15.77;;;4.50;99.90;;;;;;5071106;28;20044;-54
2022/03/11 08:13:08;;;;;;;30.45;17.27;;;4.60;99.90;;;;;;5071292;28;20044;-53
2022/03/11 08:15:34;;;;;;;28.60;16.00;;;4.60;99.90;;;;;;5071677;28;20047;-51
2022/03/11 08:18:00;;;;;;;27.13;15.73;;;4.70;99.90;;;;;;5071388;28;20609;-53
2022/03/11 08:20:26;;;;;;;27.80;15.60;;;4.80;99.90;;;;;;5069733;28;20123;-50
2022/03/11 08:22:52;;;;;;;27.13;15.27;;;4.80;99.90;;;;;;5071185;28;20048;-50
2022/03/11 08:25:18;;;;;;;26.23;15.75;;;4.90;99.90;;;;;;5071336;28;20071;-52
2022/03/11 08:27:45;;;;;;;32.60;17.77;;;4.90;99.90;;;;;;5071182;28;20495;-50
2022/03/11 08:30:12;;;;;;;29.58;17.02;;;4.90;99.90;;;;;;5071546;28;20102;-52
2022/03/11 08:32:39;;;;;;;26.15;15.82;;;5.00;99.90;;;;;;5071504;28;20399;-51
2022/03/11 08:35:06;;;;;;;27.33;15.35;;;5.20;99.90;;;;;;5070194;28;20434;-50
2022/03/11 08:37:33;;;;;;;26.83;15.88;;;5.10;99.90;;;;;;5071243;28;20047;-52
2022/03/11 08:39:58;;;;;;;26.30;16.20;;;5.20;99.90;;;;;;5071105;28;20484;-52
2022/03/11 08:42:24;;;;;;;24.05;14.65;;;5.30;99.90;;;;;;5071188;28;20044;-49
2022/03/11 08:44:50;;;;;;;23.55;14.95;;;5.30;99.90;;;;;;5071177;28;20655;-52
2022/03/11 08:47:16;;;;;;;28.05;16.55;;;5.30;99.90;;;;;;5071323;28;20044;-53
2022/03/11 08:49:41;;;;;;;25.63;15.60;;;5.40;99.90;;;;;;5070996;28;20071;-50
2022/03/11 08:52:08;;;;;;;26.77;15.98;;;5.50;99.90;;;;;;5069902;28;20052;-52
2022/03/11 08:54:34;;;;;;;23.15;15.20;;;5.50;99.90;;;;;;5070992;28;20036;-51
2022/03/11 08:56:59;;;;;;;24.90;15.57;;;5.50;99.90;;;;;;5071316;28;20045;-53
2022/03/11 08:59:26;;;;;;;25.30;14.95;;;5.60;99.90;;;;;;5074678;28;20081;-51
2022/03/11 09:01:51;;;;;;;26.50;16.33;;;5.60;99.90;;;;;;5074520;28;20064;-53
2022/03/11 09:04:19;;;;;;;25.77;15.70;;;5.70;99.90;;;;;;5070450;28;20041;-52
2022/03/11 09:06:45;;;;;;;28.30;15.20;;;5.80;99.90;;;;;;5054510;28;20041;-54
2022/03/11 09:09:11;;;;;;;28.27;16.50;;;5.80;99.90;;;;;;5054428;28;20041;-53
2022/03/11 09:11:37;;;;;;;26.00;15.70;;;5.90;99.90;;;;;;5054539;28;20052;-53
2022/03/11 09:14:03;;;;;;;29.63;15.60;;;5.90;99.90;;;;;;5054735;28;20041;-53
2022/03/11 09:16:28;;;;;;;26.88;14.88;;;6.00;99.90;;;;;;5054518;28;20047;-53
2022/03/11 09:18:54;;;;;;;22.42;14.75;;;6.10;99.90;;;;;;5054679;28;20425;-50
2022/03/11 09:21:21;;;;;;;25.55;15.10;;;6.20;99.90;;;;;;5054903;28;20051;-53
2022/03/11 09:23:47;;;;;;;24.35;15.35;;;6.30;99.90;;;;;;5054324;28;20421;-52
2022/03/11 09:26:13;;;;;;;26.08;15.60;;;6.30;99.90;;;;;;5054662;28;20048;-52
2022/03/11 09:28:40;;;;;;;25.58;15.38;;;6.40;99.90;;;;;;5053208;28;20037;-51
2022/03/11 09:31:08;;;;;;;27.25;16.13;;;6.40;99.90;;;;;;5054555;28;20048;-50
2022/03/11 09:33:40;;;;;;;24.48;15.23;;;6.50;99.90;;;;;;5054552;28;20427;-54
2022/03/11 09:36:07;;;;;;;27.30;16.63;;;6.60;99.90;;;;;;5054370;28;20195;-52
2022/03/11 09:38:36;;;;;;;26.30;15.50;;;6.60;99.90;;;;;;5054402;28;20047;-51
2022/03/11 09:41:03;;;;;;;23.45;15.48;;;6.70;99.90;;;;;;5054343;28;20400;-50
2022/03/11 09:43:29;;;;;;;27.65;16.02;;;6.70;99.90;;;;;;5054510;28;20035;-52
2022/03/11 09:45:56;;;;;;;27.45;16.23;;;6.80;99.90;;;;;;5054604;28;20687;-50
2022/03/11 09:48:22;;;;;;;24.05;15.20;;;6.80;99.90;;;;;;5061632;28;20041;-54
2022/03/11 09:50:48;;;;;;;24.48;15.15;;;6.90;99.90;;;;;;5055176;28;20115;-53
2022/03/11 09:53:15;;;;;;;25.02;15.20;;;7.00;99.90;;;;;;5054957;28;20120;-52
2022/03/11 09:55:41;;;;;;;28.35;15.57;;;6.90;99.90;;;;;;5054671;28;20121;-51
2022/03/11 09:58:07;;;;;;;26.30;15.63;;;6.90;99.90;;;;;;5054654;28;20500;-51
2022/03/11 10:00:33;;;;;;;25.70;15.73;;;7.00;99.90;;;;;;5053526;28;20070;-50
2022/03/11 10:02:58;;;;;;;24.65;14.02;;;7.00;99.90;;;;;;5054779;28;20090;-51
2022/03/11 10:05:42;;;;;;;23.75;13.98;;;7.00;99.90;;;;;;5058296;28;20396;-53
2022/03/11 10:08:08;;;;;;;29.70;15.60;;;7.00;99.90;;;;;;5054272;28;20041;-50
2022/03/11 10:10:35;;;;;;;29.40;16.23;;;7.00;99.90;;;;;;5053765;28;20043;-51
2022/03/11 10:13:01;;;;;;;27.60;16.08;;;7.10;99.90;;;;;;5054352;28;20489;-51
2022/03/11 10:15:28;;;;;;;23.85;15.48;;;7.10;99.90;;;;;;5054696;28;20036;-51
2022/03/11 10:17:55;;;;;;;27.50;16.13;;;7.20;99.90;;;;;;5057072;28;20064;-53
2022/03/11 10:20:21;;;;;;;23.65;14.48;;;7.20;99.90;;;;;;5061804;28;20029;-48
2022/03/11 10:22:47;;;;;;;26.63;15.43;;;7.30;99.90;;;;;;5056579;28;20484;-49
2022/03/11 10:25:16;;;;;;;25.25;14.43;;;7.40;99.90;;;;;;5053992;28;20061;-51
2022/03/11 10:28:08;;;;;;;26.08;16.20;;;7.40;99.90;;;;;;5054269;28;20063;-55
2022/03/11 10:30:39;;;;;;;25.80;15.15;;;7.40;99.90;;;;;;5054267;28;20134;-54
2022/03/11 10:33:11;;;;;;;23.10;14.87;;;7.30;99.90;;;;;;5052758;28;20181;-54
2022/03/11 10:35:37;;;;;;;;;;;7.40;99.90;;;;;;5053403;28;20033;-54
2022/03/11 10:38:09;;;;;;;24.02;15.15;;;7.40;99.90;;;;;;5052855;28;19927;-54
2022/03/11 10:40:39;;;;;;;26.60;15.63;;;7.50;99.90;;;;;;5053204;28;20120;-51
2022/03/11 10:43:28;;;;;;;26.90;16.50;;;7.60;99.90;;;;;;5053888;28;20033;-51
2022/03/11 10:45:57;;;;;;;25.35;16.20;;;7.70;99.90;;;;;;5053965;28;20370;-50
2022/03/11 10:48:47;;;;;;;25.92;15.02;;;7.70;99.90;;;;;;5053066;28;20529;-52
2022/03/11 10:51:24;;;;;;;26.45;15.07;;;7.90;99.90;;;;;;5052914;28;20045;-52
2022/03/11 10:53:50;;;;;;;26.15;15.57;;;7.90;99.90;;;;;;5052845;28;20045;-51
2022/03/11 10:56:29;;;;;;;26.95;16.45;;;8.00;99.90;;;;;;5053117;28;20628;-51
2022/03/11 10:58:56;;;;;;;25.88;16.75;;;8.10;99.90;;;;;;5053162;28;20040;-49
2022/03/11 11:01:36;;;;;;;26.40;15.68;;;8.10;99.90;;;;;;5053048;28;20049;-49
2022/03/11 11:04:04;;;;;;;25.27;16.02;;;8.20;99.90;;;;;;5056878;28;20078;-55
2022/03/11 11:06:30;;;;;;;27.00;17.27;;;8.20;99.90;;;;;;5053489;28;20041;-50
2022/03/11 11:08:56;;;;;;;24.45;15.40;;;8.40;99.90;;;;;;5053049;28;20096;-51
2022/03/11 11:11:22;;;;;;;27.25;16.58;;;8.40;99.90;;;;;;5053048;28;20096;-50
2022/03/11 11:13:49;;;;;;;26.33;16.38;;;8.40;99.90;;;;;;5053092;28;20049;-53
2022/03/11 11:16:17;;;;;;;26.60;16.05;;;8.30;99.90;;;;;;5035015;28;20076;-52
2022/03/11 11:18:46;;;;;;;23.67;15.65;;;8.40;99.90;;;;;;5052724;28;20052;-53
2022/03/11 11:21:16;;;;;;;27.38;16.13;;;8.40;99.90;;;;;;5050662;28;20052;-49
2022/03/11 11:23:42;;;;;;;23.52;14.63;;;8.50;99.90;;;;;;5052896;28;20378;-49
2022/03/11 11:26:10;;;;;;;26.85;15.93;;;8.50;99.90;;;;;;5052578;28;20048;-50
2022/03/11 11:28:37;;;;;;;26.17;15.75;;;8.60;99.90;;;;;;5051775;28;20086;-54
2022/03/11 11:31:04;;;;;;;26.05;16.67;;;8.70;99.90;;;;;;5052821;28;20048;-53
2022/03/11 11:33:30;;;;;;;24.55;15.50;;;8.70;99.30;;;;;;5052740;28;20067;-54
2022/03/11 11:36:01;;;;;;;26.90;16.10;;;8.80;99.90;;;;;;5052886;28;20485;-54
2022/03/11 11:38:34;;;;;;;23.70;15.95;;;8.80;99.80;;;;;;5059242;28;20127;-50
2022/03/11 11:41:02;;;;;;;25.13;15.65;;;8.90;98.60;;;;;;5061198;28;20037;-50
2022/03/11 11:43:30;;;;;;;25.63;15.73;;;8.80;97.80;;;;;;5072927;28;20041;-50
2022/03/11 11:46:02;;;;;;;25.60;16.00;;;8.90;98.20;;;;;;5072371;28;20496;-50
2022/03/11 11:48:42;;;;;;;24.45;16.67;;;9.10;98.80;;;;;;5072112;28;20562;-50
2022/03/11 11:51:23;;;;;;;25.88;15.38;;;8.90;97.00;;;;;;5071177;28;20053;-53
2022/03/11 11:53:54;;;;;;;24.38;15.57;;;9.10;97.50;;;;;;5071126;28;20040;-49
2022/03/11 11:56:35;;;;;;;23.33;14.90;;;9.10;97.80;;;;;;5072733;28;20453;-49
2022/03/11 11:59:32;;;;;;;26.33;16.33;;;9.20;96.40;;;;;;5072449;28;20047;-50
2022/03/11 12:02:04;;;;;;;25.67;15.80;;;9.20;96.40;;;;;;5072507;28;20051;-51
2022/03/11 12:04:33;;;;;;;22.10;14.63;;;9.30;97.40;;;;;;5066252;28;20120;-54
2022/03/11 12:07:10;;;;;;;27.77;15.98;;;9.30;95.70;;;;;;5051898;28;20140;-54
2022/03/11 12:09:41;;;;;;;21.67;14.75;;;9.40;96.20;;;;;;5052370;28;20044;-53
2022/03/11 12:12:20;;;;;;;23.95;15.82;;;9.50;96.40;;;;;;5050771;28;20048;-52
2022/03/11 12:14:57;;;;;;;24.88;14.95;;;9.50;95.00;;;;;;5052045;28;20519;-49
2022/03/11 12:17:36;;;;;;;21.80;14.07;;;9.60;95.70;;;;;;5051926;28;20045;-50
2022/03/11 12:20:21;;;;;;;24.13;15.73;;;9.60;94.80;;;;;;5050698;28;20098;-50
2022/03/11 12:23:09;;;;;;;23.42;15.05;;;9.70;94.50;;;;;;5051741;28;20555;-48
2022/03/11 12:25:37;;;;;;;25.55;15.05;;;9.80;94.40;;;;;;5051437;28;20049;-50
2022/03/11 12:28:24;;;;;;;23.85;15.30;;;9.90;94.90;;;;;;5051945;28;20090;-49
2022/03/11 12:30:50;;;;;;;21.40;14.77;;;9.90;95.40;;;;;;5051701;28;20052;-50
2022/03/11 12:33:17;;;;;;;23.95;15.60;;;10.00;94.30;;;;;;5051622;28;20049;-51
2022/03/11 12:35:46;;;;;;;21.65;14.32;;;10.00;93.90;;;;;;5051540;28;20041;-49
2022/03/11 12:38:14;;;;;;;23.25;14.93;;;10.10;93.90;;;;;;5067000;28;20072;-52
2022/03/11 12:40:41;;;;;;;24.25;15.77;;;10.10;93.50;;;;;;5050065;28;20037;-52